Accueil
METAR-TAF:

METAR-TAF

Aéroports :

Aéroport de Poitiers-Biard

Poitiers, France

latitude: 46-35N, longitude: 000-19E, altitude: 129 m

Observation

Le bulletin a été fait il y a 17 minutes, à 05:30 UTC
Vent 10 kt de ouest/nord-ouest
Température 11°C
Humidité 87%
Pression 1014 hPa
Visibilité 10 km ou plus
pas de nuages en-dessous de 1500 mètres et pas de cumulonimbus.

METAR: LFBI 280530Z AUTO 30010KT CAVOK 11/09 Q1014 TEMPO BKN008

Heure: 07:47 (05:47 UTC)

Prévision

Le bulletin a été fait il y a 47 minutes, à 05:00 UTC
Prévision valable du 28 à 06 UTC au 29 à 06 UTC
Vent 10 kt de ouest/nord-ouest
Visibilité 10 km ou plus
Nuages fragmentés à une hauteur de 3000 ft
Probabilité 30% :
Temporairement
du 28 à 07 UTC au 28 à 09 UTC
Nuages fragmentés à une hauteur de 800 ft

TAF: LFBI 280500Z 2806/2906 30010KT 9999 BKN030 PROB30 TEMPO 2807/2809 BKN008

Observations et prévisions météorologiques de plus de 4000 aéroports (messages METAR et TAF).

Les stations disponibles sont représentées par des disques jaunes et rouges sur la carte.

Passer la souris dessus pour voir le nom de la station.

Cliquer dessus pour voir les observations et prévisions météorologiques.

Pour changer de carte: cliquez sur les boutons verts avec une croix noire pour zoomer, sur le bouton vert avec un tiret pour effectuer un zoom arrière, ou sur les flèches vertes pour les cartes adjacentes.


METAR-TAF: